Crosskeys, Virginia
Current Conditions -  °F | °C
As of 6:55 PM on Saturday 22 Nov 2014 (Local Time) from KVBW Reporting Station
Clear Clear  
Wind Chill: 36°   Ceiling: Unl
Heat Index: 41°   Visibility: 10mi
Dew Point: 20°   Wind: 7mph
Humidity: 42%   Direction: 200°SSW
Pressure: 30.26"   Gusts: NA
Location:  38.339°N, 78.8869°W
Report Text: KVBW 222355Z AUTO 20006KT 10SM CLR 05/M07 A3026 RMK AO2 T00501069 10125 20041
Loading
Personal Weather Stations






























Interactive Weather Map New forecast layout! Learn more

10-Day Weather Forecast

Advertisements
Track Severe Weather on mobile